Takotna, Alaska
Current Conditions -  °F | °C
As of 8:55 PM on Wednesday 17 Dec 2014 (Local Time) from PATL Reporting Station
Overcast Overcast  
Wind Chill: 14°   Ceiling: 300
Heat Index: 14°   Visibility: 10mi
Dew Point: 13°   Wind: 0mph
Humidity: 95%   Direction: NA
Pressure: 29.63"   Gusts: NA
Location:  62.99°N, 156.09°W
Report Text: PATL 180555Z AUTO 00000KT 10SM OVC003 M10/M10 A2963 RMK AO2 SLP059 T10981105 11082 21090 52004 $
Loading
Personal Weather Stations






























Interactive Weather Map New forecast layout! Learn more

10-Day Weather Forecast

Advertisements
Track Severe Weather on mobile